createdAt,value
2022-10-06T00:04:44.394Z,2.70
2022-10-06T00:09:47.055Z,2.50
2022-10-06T00:14:51.270Z,2.40
2022-10-06T00:19:53.961Z,2.58
2022-10-06T00:24:56.730Z,2.40
2022-10-06T00:30:00.841Z,2.53
2022-10-06T00:35:04.045Z,2.40
2022-10-06T00:40:09.758Z,2.20
2022-10-06T00:45:13.793Z,2.20
2022-10-06T00:50:16.579Z,2.30
2022-10-06T00:55:20.233Z,2.50
2022-10-06T01:00:24.201Z,2.30
2022-10-06T01:05:29.402Z,2.10
2022-10-06T01:10:32.125Z,2.10
2022-10-06T01:15:36.421Z,2.20
2022-10-06T01:20:39.367Z,1.98
2022-10-06T01:25:43.554Z,2.35
2022-10-06T01:30:52.469Z,1.95
2022-10-06T01:35:57.270Z,2.10
2022-10-06T01:41:01.450Z,2.10
2022-10-06T01:46:04.953Z,2.13
2022-10-06T01:51:08.634Z,1.92
2022-10-06T01:56:14.000Z,2.00
2022-10-06T02:01:17.646Z,1.70
2022-10-06T02:06:21.141Z,1.90
2022-10-06T02:11:25.233Z,2.20
2022-10-06T02:16:28.376Z,1.77
2022-10-06T02:21:31.627Z,1.90
2022-10-06T02:26:35.725Z,1.90
2022-10-06T02:31:38.666Z,1.70
2022-10-06T02:36:41.418Z,1.98
2022-10-06T02:41:46.507Z,1.90
2022-10-06T02:46:49.666Z,1.67
2022-10-06T02:51:53.631Z,1.70
2022-10-06T02:56:58.012Z,1.60
2022-10-06T03:02:02.307Z,1.85
2022-10-06T03:07:05.244Z,1.80
2022-10-06T03:12:13.601Z,1.70
2022-10-06T03:17:19.601Z,1.50
2022-10-06T03:22:27.331Z,1.55
2022-10-06T03:27:33.764Z,1.70
2022-10-06T03:32:39.358Z,1.70
2022-10-06T03:37:43.515Z,1.60
2022-10-06T03:42:47.773Z,1.58
2022-10-06T03:47:51.094Z,1.73
2022-10-06T03:52:53.915Z,1.60
2022-10-06T03:57:58.433Z,1.63
2022-10-06T04:03:01.223Z,1.60
2022-10-06T04:08:03.917Z,1.23
2022-10-06T04:13:08.150Z,1.50
2022-10-06T04:18:11.239Z,1.40
2022-10-06T04:23:15.884Z,1.50
2022-10-06T04:28:20.361Z,1.40
2022-10-06T04:33:23.308Z,1.38
2022-10-06T04:38:26.202Z,1.60
2022-10-06T04:43:30.839Z,1.52
2022-10-06T04:48:34.747Z,1.50
2022-10-06T04:53:37.690Z,1.42
2022-10-06T04:58:42.938Z,1.33
2022-10-06T05:03:47.633Z,1.70
2022-10-06T05:08:51.454Z,1.30
2022-10-06T05:13:57.360Z,1.80
2022-10-06T05:19:01.450Z,1.50
2022-10-06T05:24:04.468Z,1.48
2022-10-06T05:29:08.592Z,1.50
2022-10-06T05:34:12.813Z,1.50
2022-10-06T05:39:16.145Z,1.40
2022-10-06T05:44:24.321Z,1.85
2022-10-06T05:49:27.174Z,1.50
2022-10-06T05:54:37.022Z,1.45
2022-10-06T05:59:43.122Z,1.40
2022-10-06T06:04:45.892Z,1.25
2022-10-06T06:09:49.603Z,1.20
2022-10-06T06:15:11.365Z,1.48
2022-10-06T06:20:22.481Z,1.50
2022-10-06T06:25:26.098Z,1.50
2022-10-06T06:30:30.860Z,1.30
2022-10-06T06:35:34.863Z,1.40
2022-10-06T06:40:41.188Z,1.60
2022-10-06T06:45:45.690Z,1.50
2022-10-06T06:50:59.244Z,1.30
2022-10-06T06:56:05.540Z,1.48
2022-10-06T07:01:14.127Z,1.40
2022-10-06T07:06:18.378Z,1.30
2022-10-06T07:11:23.888Z,1.23
2022-10-06T07:16:46.630Z,1.20
2022-10-06T07:22:09.090Z,1.30
2022-10-06T07:27:11.967Z,1.23
2022-10-06T07:32:16.326Z,1.25
2022-10-06T07:37:19.894Z,1.20
2022-10-06T07:42:23.001Z,1.30
2022-10-06T07:47:27.154Z,1.00
2022-10-06T07:52:32.523Z,1.30
2022-10-06T07:57:35.712Z,1.30
2022-10-06T08:02:40.063Z,1.20
2022-10-06T08:07:42.856Z,1.30
2022-10-06T08:17:54.878Z,1.10
2022-10-06T08:22:57.867Z,1.20
2022-10-06T08:28:00.663Z,1.30
2022-10-06T08:33:05.591Z,1.20
2022-10-06T08:38:08.299Z,1.20
2022-10-06T08:43:16.378Z,1.20
2022-10-06T08:48:29.874Z,1.40
2022-10-06T08:53:38.145Z,1.23
2022-10-06T08:58:47.914Z,1.00
2022-10-06T09:03:53.938Z,1.20
2022-10-06T09:08:59.767Z,1.20
2022-10-06T09:14:06.400Z,1.13
2022-10-06T09:19:15.531Z,1.10
2022-10-06T09:24:19.846Z,1.20
2022-10-06T09:29:22.630Z,1.00
2022-10-06T09:34:40.285Z,1.33
2022-10-06T09:39:44.677Z,1.10
2022-10-06T09:44:54.878Z,1.25
2022-10-06T09:50:07.128Z,1.08
2022-10-06T09:55:15.919Z,1.33
2022-10-06T10:00:29.346Z,1.10
2022-10-06T10:05:34.889Z,1.10
2022-10-06T10:10:38.267Z,1.05
2022-10-06T10:15:53.488Z,1.10
2022-10-06T10:20:59.376Z,1.20
2022-10-06T10:26:15.224Z,1.20
2022-10-06T10:31:21.119Z,1.10
2022-10-06T10:36:31.952Z,0.90
2022-10-06T10:41:41.409Z,1.05
2022-10-06T10:46:47.633Z,1.20
2022-10-06T10:51:54.476Z,1.33
2022-10-06T10:56:57.209Z,1.10
2022-10-06T11:02:01.327Z,1.40
2022-10-06T11:07:12.067Z,1.13
2022-10-06T11:12:20.990Z,1.10
2022-10-06T11:17:44.015Z,1.30
2022-10-06T11:22:52.691Z,1.00
2022-10-06T11:28:03.122Z,1.40
2022-10-06T11:33:14.194Z,1.33
2022-10-06T11:38:25.542Z,1.10
2022-10-06T11:43:33.602Z,1.35
2022-10-06T11:48:36.352Z,1.38
2022-10-06T11:53:41.306Z,1.00
2022-10-06T11:59:11.813Z,1.63
2022-10-06T12:04:18.533Z,1.40
2022-10-06T12:09:32.436Z,1.27
2022-10-06T12:20:13.197Z,1.33
2022-10-06T12:25:25.043Z,1.00
2022-10-06T12:30:31.922Z,1.27
2022-10-06T12:35:36.276Z,1.00
2022-10-06T12:40:49.249Z,1.10
2022-10-06T12:45:57.483Z,1.10
2022-10-06T12:51:05.348Z,1.40
2022-10-06T12:56:17.617Z,1.10
2022-10-06T13:01:21.447Z,1.15
2022-10-06T13:06:25.401Z,1.08
2022-10-06T13:11:29.719Z,0.93
2022-10-06T13:16:34.163Z,1.23
2022-10-06T13:21:37.222Z,0.90
2022-10-06T13:26:41.998Z,1.10
2022-10-06T13:31:51.828Z,1.00
2022-10-06T13:36:55.940Z,1.02
2022-10-06T13:42:03.306Z,1.20
2022-10-06T13:47:08.476Z,1.08
2022-10-06T13:52:17.599Z,0.80
2022-10-06T13:57:41.766Z,1.30
2022-10-06T14:02:45.472Z,0.82
2022-10-06T14:07:48.904Z,1.05
2022-10-06T14:12:52.943Z,0.93
2022-10-06T14:17:57.301Z,0.90
2022-10-06T14:23:00.046Z,1.10
2022-10-06T14:28:04.114Z,1.10
2022-10-06T14:33:06.862Z,1.13
2022-10-06T14:38:09.559Z,1.00
2022-10-06T14:43:13.619Z,1.00
2022-10-06T14:48:16.418Z,0.88
2022-10-06T14:53:19.133Z,0.93
2022-10-06T14:58:23.207Z,1.17
2022-10-06T15:03:26.031Z,1.00
2022-10-06T15:08:30.642Z,0.93
2022-10-06T15:13:35.931Z,1.08
2022-10-06T15:18:42.578Z,1.08
2022-10-06T15:23:46.108Z,1.05
2022-10-06T15:29:02.702Z,0.95
2022-10-06T15:34:09.310Z,1.00
2022-10-06T15:39:13.397Z,0.93
2022-10-06T15:44:19.465Z,0.80
2022-10-06T15:49:23.629Z,0.93
2022-10-06T15:54:27.632Z,0.90
2022-10-06T15:59:32.432Z,0.93
2022-10-06T16:04:48.477Z,0.95
2022-10-06T16:09:52.397Z,1.00
2022-10-06T16:14:56.571Z,0.90
2022-10-06T16:19:59.204Z,1.08
2022-10-06T16:25:01.924Z,1.10
2022-10-06T16:30:07.688Z,1.10
2022-10-06T16:35:14.704Z,1.10
2022-10-06T16:40:22.506Z,0.90
2022-10-06T16:45:26.571Z,0.95
2022-10-06T16:50:29.314Z,1.20
2022-10-06T16:55:31.994Z,1.10
2022-10-06T17:00:35.991Z,2.45
2022-10-06T17:05:38.691Z,1.70
2022-10-06T17:10:41.368Z,1.63
2022-10-06T17:15:45.450Z,1.55
2022-10-06T17:20:54.689Z,1.80
2022-10-06T17:26:05.587Z,1.73
2022-10-06T17:31:09.987Z,2.03
2022-10-06T17:36:15.127Z,1.67
2022-10-06T17:41:19.438Z,2.00
2022-10-06T17:46:24.175Z,1.83
2022-10-06T17:51:29.008Z,1.80
2022-10-06T17:56:35.009Z,1.98
2022-10-06T18:01:39.056Z,1.60
2022-10-06T18:06:41.838Z,1.95
2022-10-06T18:11:48.163Z,1.70
2022-10-06T18:16:56.441Z,1.85
2022-10-06T18:22:01.018Z,1.73
2022-10-06T18:27:05.815Z,1.40
2022-10-06T18:37:32.801Z,1.50
2022-10-06T18:42:35.874Z,1.52
2022-10-06T18:47:57.612Z,2.03
2022-10-06T18:53:00.248Z,1.83
2022-10-06T18:58:04.584Z,2.00
2022-10-06T19:03:11.228Z,2.33
2022-10-06T19:08:13.921Z,2.05
2022-10-06T19:13:16.660Z,2.50
2022-10-06T19:18:20.775Z,2.33
2022-10-06T19:23:23.473Z,2.28
2022-10-06T19:28:28.421Z,2.28
2022-10-06T19:33:32.989Z,2.33
2022-10-06T19:38:38.249Z,2.40
2022-10-06T19:43:40.981Z,2.20
2022-10-06T19:48:45.039Z,2.20
2022-10-06T19:53:49.711Z,2.10
2022-10-06T19:58:53.055Z,1.85
2022-10-06T20:03:57.222Z,2.42
2022-10-06T20:09:24.984Z,2.00
2022-10-06T20:14:27.854Z,1.73
2022-10-06T20:19:31.950Z,1.83
2022-10-06T20:24:35.371Z,1.92
2022-10-06T20:29:38.077Z,2.00
2022-10-06T20:34:42.230Z,1.65
2022-10-06T20:40:02.339Z,1.80
2022-10-06T20:45:05.562Z,1.70
2022-10-06T20:50:10.797Z,2.10
2022-10-06T20:55:14.493Z,1.70
2022-10-06T21:00:17.968Z,1.95
2022-10-06T21:05:22.244Z,2.00
2022-10-06T21:10:25.079Z,1.60
2022-10-06T21:15:28.051Z,1.90
2022-10-06T21:20:32.252Z,1.60
2022-10-06T21:25:37.939Z,1.80
2022-10-06T21:30:41.171Z,2.22
2022-10-06T21:35:45.410Z,1.90
2022-10-06T21:40:48.274Z,1.90
2022-10-06T21:46:05.053Z,1.80
2022-10-06T21:51:15.572Z,2.10
2022-10-06T21:56:18.583Z,2.08
2022-10-06T22:01:23.551Z,1.98
2022-10-06T22:06:28.245Z,2.00
2022-10-06T22:11:32.521Z,2.17
2022-10-06T22:16:36.636Z,2.17
2022-10-06T22:21:42.364Z,2.08
2022-10-06T22:26:45.778Z,2.00
2022-10-06T22:31:49.329Z,2.10
2022-10-06T22:36:53.672Z,2.40
2022-10-06T22:41:56.562Z,2.20
2022-10-06T22:46:59.445Z,1.90
2022-10-06T22:52:03.707Z,1.80
2022-10-06T22:57:07.124Z,2.13
2022-10-06T23:02:10.007Z,2.40
2022-10-06T23:07:14.244Z,2.15
2022-10-06T23:12:17.107Z,2.30
2022-10-06T23:17:19.979Z,2.30
2022-10-06T23:22:24.274Z,2.13
2022-10-06T23:27:27.166Z,2.15
2022-10-06T23:32:30.312Z,2.58
2022-10-06T23:37:34.533Z,2.70
2022-10-06T23:42:37.475Z,2.17
2022-10-06T23:47:40.397Z,2.40
2022-10-06T23:52:44.775Z,2.58
2022-10-06T23:57:47.694Z,2.33
